Keweenaw Bay, Michigan
Current Conditions -  °F | °C
As of 11:53 AM on Sunday 23 Nov 2014 (Local Time) from KCMX Reporting Station
Haze Haze  
Wind Chill: 37°   Ceiling: 500
Heat Index: 41°   Visibility: 6mi
Dew Point: 38°   Wind: 6mph
Humidity: 89%   Direction: 120°ESE
Pressure: 29.47"   Gusts: NA
Location:  46.811°N, 88.5098°W
Report Text: KCMX 231653Z AUTO 12005KT 6SM BR OVC005 05/03 A2947 RMK AO2 SLP990 T00500033
Loading
Personal Weather Stations






























Interactive Weather Map New forecast layout! Learn more

10-Day Weather Forecast

Advertisements
Track Severe Weather on mobile